Time;durP1;ratioP1;P1;durP2;ratioP2;P2;SDS_P1;SDS_P2;PMS_P1;PMS_P2;Temp;Humidity;BMP_temperature;BMP_pressure;BME280_temperature;BME280_humidity;BME280_pressure;Samples;Min_cycle;Max_cycle;Signal;HPM_P1;HPM_P2
2021/03/16 00:01:05;;;;;;;6.32;4.05;;;;;;;3.77;85.57;100949.34;5033967;28;20044;-87
2021/03/16 00:03:34;;;;;;;10.40;4.72;;;;;;;3.84;84.82;100955.47;5066861;28;20028;-88
2021/03/16 00:06:01;;;;;;;9.27;4.43;;;;;;;3.81;85.59;100955.88;5067339;28;20024;-89
2021/03/16 00:08:27;;;;;;;11.05;4.93;;;;;;;3.87;85.07;100951.59;5068114;28;20565;-87
2021/03/16 00:10:53;;;;;;;7.63;4.32;;;;;;;3.84;85.37;100950.19;5053217;28;20086;-87
2021/03/16 00:13:19;;;;;;;10.40;4.68;;;;;;;3.86;85.12;100956.09;5053294;28;20028;-87
2021/03/16 00:15:48;;;;;;;8.68;4.75;;;;;;;3.93;84.53;100956.91;5052982;28;20478;-88
2021/03/16 00:18:15;;;;;;;13.27;5.00;;;;;;;3.92;85.44;100957.13;5047745;28;20021;-88
2021/03/16 00:20:45;;;;;;;8.20;4.10;;;;;;;3.98;84.54;100963.47;5019022;28;20022;-88
2021/03/16 00:23:14;;;;;;;9.02;4.38;;;;;;;3.98;84.28;100955.53;5014989;28;20021;-88
2021/03/16 00:25:40;;;;;;;7.82;3.67;;;;;;;3.92;85.16;100965.88;5013212;28;20087;-87
2021/03/16 00:28:06;;;;;;;13.25;4.50;;;;;;;3.95;84.16;100970.00;5013505;28;20030;-89
2021/03/16 00:30:32;;;;;;;8.02;4.78;;;;;;;3.93;84.74;100972.81;5018182;28;20463;-89
2021/03/16 00:33:00;;;;;;;6.45;3.88;;;;;;;3.82;85.47;100978.72;5037292;28;20033;-88
2021/03/16 00:35:28;;;;;;;10.63;4.65;;;;;;;3.86;85.05;100982.59;5037474;28;20063;-89
2021/03/16 00:37:54;;;;;;;19.65;4.22;;;;;;;3.90;84.61;100986.47;5037227;28;20583;-88
2021/03/16 00:40:29;;;;;;;9.32;4.13;;;;;;;3.76;85.17;100984.78;5036509;28;20124;-89
2021/03/16 00:42:55;;;;;;;9.65;3.83;;;;;;;3.75;85.14;100988.44;5033920;28;20020;-88
2021/03/16 00:45:20;;;;;;;11.18;4.25;;;;;;;3.80;84.82;100987.88;5039342;28;20497;-87
2021/03/16 00:47:46;;;;;;;7.97;3.47;;;;;;;3.81;84.37;100990.34;5044766;28;20036;-88
2021/03/16 00:50:12;;;;;;;9.70;3.97;;;;;;;3.85;83.96;100991.56;5054112;28;20108;-87
2021/03/16 00:52:38;;;;;;;9.02;4.57;;;;;;;3.87;84.13;100994.84;5053271;28;20028;-89
2021/03/16 00:55:05;;;;;;;8.77;4.32;;;;;;;3.79;84.36;100997.66;5053132;28;20604;-88
2021/03/16 00:57:31;;;;;;;8.55;4.03;;;;;;;3.74;84.92;101004.56;5053258;28;20052;-87
2021/03/16 01:02:51;;;;;;;7.82;3.92;;;;;;;3.78;84.21;101006.63;5049204;28;20158;-87
2021/03/16 01:05:16;;;;;;;6.57;4.10;;;;;;;3.80;83.93;101009.91;5033900;28;20450;-87
2021/03/16 01:07:42;;;;;;;11.00;5.40;;;;;;;3.77;84.33;101012.97;5035283;28;20025;-88
2021/03/16 01:10:15;;;;;;;8.52;4.40;;;;;;;3.76;84.31;101016.59;5036408;28;20024;-87
2021/03/16 01:12:44;;;;;;;8.63;4.57;;;;;;;3.68;84.91;101014.13;5034936;28;20031;-87
2021/03/16 01:15:10;;;;;;;7.65;3.97;;;;;;;3.77;84.20;101010.31;5038712;28;20410;-87
2021/03/16 01:17:36;;;;;;;11.88;4.60;;;;;;;3.72;84.71;101014.53;5024486;28;20028;-86
2021/03/16 01:20:09;;;;;;;7.40;4.30;;;;;;;3.58;85.08;101022.41;5027086;28;20025;-87
2021/03/16 01:22:34;;;;;;;12.73;5.30;;;;;;;3.71;84.51;101020.84;5032443;28;20544;-86
2021/03/16 01:25:00;;;;;;;10.02;5.70;;;;;;;3.69;84.58;101025.53;5033932;28;20028;-86
2021/03/16 01:27:26;;;;;;;10.52;4.63;;;;;;;3.64;84.57;101023.47;5032917;28;20633;-84
2021/03/16 01:29:53;;;;;;;9.57;5.28;;;;;;;3.52;85.46;101030.31;5032787;28;20028;-86
2021/03/16 01:32:19;;;;;;;9.32;4.45;;;;;;;3.67;84.50;101024.91;5034373;28;20040;-86
2021/03/16 01:34:45;;;;;;;12.25;4.68;;;;;;;3.70;84.07;101025.34;5034222;28;20403;-86
2021/03/16 01:37:10;;;;;;;9.63;5.35;;;;;;;3.59;85.15;101041.78;5032622;28;20083;-86
2021/03/16 01:39:36;;;;;;;10.90;4.72;;;;;;;3.54;85.33;101038.91;5022106;28;20119;-86
2021/03/16 01:42:04;;;;;;;13.55;5.47;;;;;;;3.41;86.51;101039.66;5023685;28;20048;-86
2021/03/16 01:44:30;;;;;;;13.27;5.43;;;;;;;3.32;87.16;101038.97;5037914;28;20033;-85
2021/03/16 01:46:55;;;;;;;9.52;5.18;;;;;;;3.45;86.13;101034.78;5030648;28;20039;-86
2021/03/16 01:49:21;;;;;;;11.23;5.57;;;;;;;3.41;86.42;101041.44;5036310;28;20093;-86
2021/03/16 01:51:47;;;;;;;11.98;5.43;;;;;;;3.52;85.28;101048.88;5033044;28;20064;-86
2021/03/16 01:54:12;;;;;;;12.63;5.65;;;;;;;3.56;85.30;101045.63;5025860;28;20029;-86
2021/03/16 01:56:40;;;;;;;14.32;5.43;;;;;;;3.51;85.98;101042.75;5027738;28;20037;-86
2021/03/16 01:59:16;;;;;;;12.82;6.13;;;;;;;3.46;86.25;101044.34;5022605;28;20036;-86
2021/03/16 02:01:44;;;;;;;10.93;5.97;;;;;;;3.43;86.55;101052.69;5024890;28;20080;-86
2021/03/16 02:04:12;;;;;;;11.27;5.47;;;;;;;3.41;86.65;101052.91;5043524;28;20029;-86
2021/03/16 02:06:37;;;;;;;13.48;6.45;;;;;;;3.46;85.96;101055.78;5020906;28;20036;-86
2021/03/16 02:09:34;;;;;;;12.80;6.00;;;;;;;3.55;85.12;101053.78;5020355;28;21148;-86
2021/03/16 02:12:14;;;;;;;12.18;6.55;;;;;;;3.50;85.33;101057.00;5020932;28;20037;-86
2021/03/16 02:14:47;;;;;;;10.95;5.78;;;;;;;3.50;85.73;101064.16;5021610;28;20045;-86
2021/03/16 02:17:20;;;;;;;12.93;5.72;;;;;;;3.51;85.58;101063.13;5021116;28;20021;-86
2021/03/16 02:20:13;;;;;;;18.60;6.55;;;;;;;3.48;85.89;101068.81;5022001;28;20036;-86
2021/03/16 02:22:42;;;;;;;13.48;6.82;;;;;;;3.55;85.54;101072.31;5036208;28;20029;-86
2021/03/16 02:25:25;;;;;;;13.35;7.15;;;;;;;3.55;85.62;101069.69;5025213;28;20021;-86
2021/03/16 02:28:08;;;;;;;14.27;6.50;;;;;;;3.50;86.54;101067.63;5022032;28;20146;-86
2021/03/16 02:30:37;;;;;;;16.38;7.28;;;;;;;3.62;85.58;101070.56;5022381;28;20032;-87
2021/03/16 02:33:07;;;;;;;15.10;6.65;;;;;;;3.66;85.32;101070.97;5023380;28;20040;-85
2021/03/16 02:35:35;;;;;;;13.02;6.15;;;;;;;3.69;85.28;101068.75;5021030;28;20798;-87
2021/03/16 02:38:05;;;;;;;13.70;6.63;;;;;;;3.63;85.69;101073.00;5043393;28;20071;-87
2021/03/16 02:40:33;;;;;;;11.90;6.85;;;;;;;3.67;85.30;101073.44;5025024;28;20025;-87
2021/03/16 02:43:00;;;;;;;15.40;7.18;;;;;;;3.67;86.03;101084.03;5028848;28;20017;-87
2021/03/16 02:45:25;;;;;;;12.80;6.50;;;;;;;3.75;84.96;101078.56;5030929;28;20040;-87
2021/03/16 02:47:51;;;;;;;12.90;6.70;;;;;;;3.62;86.16;101084.63;5034607;28;20032;-86
2021/03/16 02:50:17;;;;;;;17.17;7.15;;;;;;;3.57;86.00;101092.31;5043906;28;20443;-87
2021/03/16 02:52:44;;;;;;;13.77;6.95;;;;;;;3.56;86.63;101092.50;5035631;28;20036;-87
2021/03/16 02:55:11;;;;;;;16.25;6.95;;;;;;;3.44;87.47;101099.38;5029118;28;20025;-86
2021/03/16 02:57:38;;;;;;;16.75;7.05;;;;;;;3.49;86.99;101097.75;5032367;28;20029;-87
2021/03/16 03:00:05;;;;;;;13.63;5.97;;;;;;;3.60;85.58;101104.38;5034777;28;20475;-88
2021/03/16 03:02:35;;;;;;;13.85;6.53;;;;;;;3.59;86.22;101100.91;5025180;28;20028;-87
2021/03/16 03:05:03;;;;;;;10.05;5.45;;;;;;;3.45;86.62;101112.41;5030220;28;20016;-87
2021/03/16 03:07:29;;;;;;;12.35;5.57;;;;;;;3.42;87.14;101114.63;5032989;28;20487;-86
2021/03/16 03:09:56;;;;;;;10.30;4.35;;;;;;;3.36;87.34;101118.84;5028525;28;20029;-86
2021/03/16 03:12:22;;;;;;;7.43;4.63;;;;;;;3.44;87.03;101120.56;5044646;28;22038;-87
2021/03/16 03:14:47;;;;;;;8.00;4.55;;;;;;;3.41;87.62;101120.91;5030054;28;20033;-87
2021/03/16 03:17:13;;;;;;;6.53;3.47;;;;;;;3.36;87.79;101129.44;5026551;28;20029;-86
2021/03/16 03:19:38;;;;;;;5.75;3.67;;;;;;;3.21;88.49;101126.88;5044110;28;20028;-87
2021/03/16 03:22:17;;;;;;;7.55;3.70;;;;;;;3.21;88.47;101134.00;5033153;28;20017;-86
2021/03/16 03:24:56;;;;;;;4.97;3.13;;;;;;;3.21;87.98;101136.63;5028184;28;20087;-86
2021/03/16 03:27:36;;;;;;;6.05;2.95;;;;;;;3.13;87.60;101144.72;5032996;28;20033;-87
2021/03/16 03:30:04;;;;;;;2.70;1.75;;;;;;;3.18;86.13;101145.78;5031814;28;20492;-87
2021/03/16 03:32:33;;;;;;;2.50;1.83;;;;;;;3.21;85.77;101140.09;5032819;28;20041;-87
2021/03/16 03:35:00;;;;;;;2.13;1.55;;;;;;;3.24;85.59;101138.94;5034904;28;20025;-87
2021/03/16 03:37:27;;;;;;;3.75;1.95;;;;;;;3.16;86.51;101154.94;5032176;28;20021;-87
2021/03/16 03:39:53;;;;;;;10.25;2.13;;;;;;;3.18;86.14;101160.84;5036119;28;20100;-87
2021/03/16 03:42:20;;;;;;;3.35;2.00;;;;;;;3.18;86.10;101155.56;5046650;28;20092;-88
2021/03/16 03:44:47;;;;;;;3.20;2.05;;;;;;;3.20;85.86;101170.25;5032627;28;20040;-86
2021/03/16 03:47:16;;;;;;;4.57;2.33;;;;;;;3.15;87.01;101170.00;5038322;28;20111;-87
2021/03/16 03:49:45;;;;;;;2.97;2.03;;;;;;;3.18;86.82;101169.63;5046294;28;20029;-88
2021/03/16 03:52:16;;;;;;;3.92;2.40;;;;;;;3.18;86.54;101179.38;5030631;28;20040;-88
2021/03/16 03:54:47;;;;;;;2.85;1.77;;;;;;;3.00;86.71;101178.00;5029761;28;20029;-88
2021/03/16 03:57:15;;;;;;;5.47;2.97;;;;;;;3.09;86.97;101183.19;5030282;28;20030;-88
2021/03/16 03:59:49;;;;;;;4.20;1.90;;;;;;;3.17;86.15;101185.69;5033887;28;20546;-88
2021/03/16 04:02:15;;;;;;;2.38;1.60;;;;;;;3.15;86.51;101190.38;5040369;28;20020;-88
2021/03/16 04:04:41;;;;;;;3.05;1.83;;;;;;;3.15;86.75;101193.84;5047733;28;20017;-88
2021/03/16 04:07:07;;;;;;;2.67;1.92;;;;;;;3.17;86.89;101194.47;5038612;28;20028;-89
2021/03/16 04:09:34;;;;;;;3.30;2.30;;;;;;;3.13;87.61;101198.50;5045056;28;20016;-88
2021/03/16 04:12:01;;;;;;;3.08;2.30;;;;;;;3.06;88.19;101202.09;5051629;28;20086;-89
2021/03/16 04:14:28;;;;;;;5.72;2.47;;;;;;;3.10;87.80;101206.00;5037537;28;20025;-88
2021/03/16 04:16:56;;;;;;;2.25;1.77;;;;;;;3.06;87.57;101213.50;5034527;28;20021;-89
2021/03/16 04:19:23;;;;;;;2.05;1.65;;;;;;;3.00;87.22;101230.13;5031866;28;20020;-91
2021/03/16 04:21:50;;;;;;;1.33;1.02;;;;;;;3.03;86.35;101224.44;5056695;28;20031;-89
2021/03/16 04:24:16;;;;;;;1.17;1.08;;;;;;;3.00;85.34;101223.00;5058568;28;20117;-88
2021/03/16 04:26:45;;;;;;;2.95;1.40;;;;;;;2.87;85.72;101236.09;5059359;28;20103;-88
2021/03/16 04:29:10;;;;;;;1.77;1.50;;;;;;;2.88;85.63;101226.34;5059257;28;20039;-89
2021/03/16 04:31:36;;;;;;;2.30;1.40;;;;;;;2.84;85.69;101239.09;5044478;28;20033;-86
2021/03/16 04:34:01;;;;;;;2.72;1.52;;;;;;;2.81;85.71;101243.94;5034094;28;20033;-87
2021/03/16 04:36:27;;;;;;;1.48;1.38;;;;;;;2.80;85.61;101245.75;5044546;28;20029;-88
2021/03/16 04:38:53;;;;;;;1.95;1.67;;;;;;;2.83;85.55;101248.03;5040732;28;20376;-88
2021/03/16 04:41:19;;;;;;;4.72;1.55;;;;;;;2.72;86.18;101252.00;5043972;28;20112;-88
2021/03/16 04:43:45;;;;;;;1.45;1.30;;;;;;;2.66;85.99;101251.88;5042646;28;20083;-88
2021/03/16 04:46:13;;;;;;;2.55;1.90;;;;;;;2.61;85.74;101249.81;5035996;28;20020;-87
2021/03/16 04:48:48;;;;;;;2.38;1.83;;;;;;;2.67;84.93;101250.88;5033852;28;20108;-88
2021/03/16 04:51:13;;;;;;;3.40;1.95;;;;;;;2.59;85.44;101256.28;5037104;28;20021;-87
2021/03/16 04:53:39;;;;;;;2.30;1.85;;;;;;;2.52;85.66;101261.50;5031838;28;20044;-88
2021/03/16 04:56:05;;;;;;;3.92;2.83;;;;;;;2.41;85.65;101257.47;5035481;28;20052;-88
2021/03/16 04:58:31;;;;;;;3.63;2.70;;;;;;;2.52;85.79;101258.03;5034268;28;20742;-87
2021/03/16 05:00:56;;;;;;;3.40;2.75;;;;;;;2.56;85.67;101261.94;5035642;28;20048;-87
2021/03/16 05:03:22;;;;;;;2.67;2.47;;;;;;;2.59;85.49;101267.69;5036737;28;20020;-88
2021/03/16 05:05:47;;;;;;;2.58;2.25;;;;;;;2.43;86.38;101266.03;5029633;28;20498;-88
2021/03/16 05:08:13;;;;;;;4.22;2.78;;;;;;;2.52;85.96;101273.91;5029743;28;20025;-88
2021/03/16 05:10:45;;;;;;;4.13;2.95;;;;;;;2.51;86.24;101273.03;5031550;28;20029;-87
2021/03/16 05:13:15;;;;;;;5.10;3.45;;;;;;;2.40;87.09;101276.97;5033246;28;20033;-88
2021/03/16 05:15:41;;;;;;;5.43;3.38;;;;;;;2.46;86.95;101283.34;5035143;28;20028;-87
2021/03/16 05:18:06;;;;;;;5.88;3.90;;;;;;;2.41;87.64;101288.38;5035913;28;20148;-88
2021/03/16 05:20:32;;;;;;;6.05;3.88;;;;;;;2.54;86.79;101290.41;5029245;28;20044;-87
2021/03/16 05:22:57;;;;;;;6.80;3.40;;;;;;;2.51;87.06;101291.56;5030713;28;20032;-86
2021/03/16 05:25:24;;;;;;;3.90;3.22;;;;;;;2.54;87.20;101293.88;5038429;28;20032;-86
2021/03/16 05:27:50;;;;;;;5.60;3.28;;;;;;;2.62;86.75;101298.25;5029795;28;20044;-88
2021/03/16 05:30:16;;;;;;;6.63;4.15;;;;;;;2.51;86.50;101309.25;5029831;28;20033;-87
2021/03/16 05:32:42;;;;;;;4.07;3.50;;;;;;;2.67;86.15;101307.25;5030430;28;20037;-85
2021/03/16 05:35:08;;;;;;;7.38;4.07;;;;;;;2.70;86.20;101308.75;5034903;28;20390;-86
2021/03/16 05:37:34;;;;;;;6.25;3.90;;;;;;;2.77;85.90;101319.41;5030612;28;20067;-86
2021/03/16 05:39:59;;;;;;;6.70;3.78;;;;;;;2.78;86.03;101310.47;5032308;28;20064;-86
2021/03/16 05:42:26;;;;;;;9.27;3.53;;;;;;;2.81;86.03;101328.63;5030115;28;20032;-86
2021/03/16 05:44:52;;;;;;;6.65;4.40;;;;;;;2.76;85.89;101320.41;5030531;28;20040;-88
2021/03/16 05:47:20;;;;;;;6.60;3.40;;;;;;;2.76;85.71;101325.72;5032972;28;20075;-87
2021/03/16 05:49:50;;;;;;;5.78;3.28;;;;;;;2.72;86.09;101323.44;5034713;28;20038;-87
2021/03/16 05:52:21;;;;;;;4.00;3.17;;;;;;;2.65;85.93;101329.63;5026773;28;20017;-87
2021/03/16 05:54:47;;;;;;;5.57;3.58;;;;;;;2.64;85.89;101336.72;5033144;28;20111;-86
2021/03/16 05:57:13;;;;;;;5.75;3.40;;;;;;;2.63;85.08;101337.75;5040050;28;20459;-87
2021/03/16 05:59:39;;;;;;;5.15;2.65;;;;;;;2.56;84.39;101349.25;5030015;28;20132;-88
2021/03/16 06:02:08;;;;;;;3.90;2.40;;;;;;;2.59;84.39;101351.53;5033344;28;20025;-86
2021/03/16 06:04:34;;;;;;;3.53;2.72;;;;;;;2.48;84.54;101346.66;5029114;28;20037;-86
2021/03/16 06:06:59;;;;;;;2.90;2.45;;;;;;;2.43;84.43;101355.13;5030876;28;20036;-87
2021/03/16 06:09:25;;;;;;;4.68;2.80;;;;;;;2.51;84.17;101354.22;5026876;28;20033;-86
2021/03/16 06:11:51;;;;;;;3.50;3.20;;;;;;;2.36;84.12;101362.16;5032298;28;20127;-85
2021/03/16 06:14:17;;;;;;;4.45;2.78;;;;;;;2.44;84.05;101370.00;5026826;28;20583;-85
2021/03/16 06:16:44;;;;;;;4.95;2.40;;;;;;;2.50;83.58;101371.91;5025083;28;20029;-85
2021/03/16 06:19:16;;;;;;;3.20;2.80;;;;;;;2.60;83.44;101377.78;5029759;28;20119;-85
2021/03/16 06:21:59;;;;;;;5.60;3.60;;;;;;;2.68;83.28;101380.34;5042864;28;20476;-86
2021/03/16 06:24:25;;;;;;;2.65;2.20;;;;;;;2.72;82.73;101386.13;5034745;28;20032;-87
2021/03/16 06:26:52;;;;;;;2.42;2.22;;;;;;;2.69;82.21;101392.59;5027552;28;20104;-85
2021/03/16 06:29:18;;;;;;;3.17;2.55;;;;;;;2.64;82.01;101399.41;5029843;28;20063;-85
2021/03/16 06:31:44;;;;;;;3.47;2.58;;;;;;;2.71;82.04;101406.47;5031985;28;20751;-87
2021/03/16 06:34:24;;;;;;;3.92;2.72;;;;;;;2.76;81.16;101400.63;5024734;28;20033;-86
2021/03/16 06:37:00;;;;;;;5.47;2.28;;;;;;;2.71;80.30;101410.94;5018246;28;20041;-86
2021/03/16 06:39:27;;;;;;;3.97;2.70;;;;;;;2.79;81.29;101417.97;5012960;28;20036;-85
2021/03/16 06:42:02;;;;;;;4.15;2.33;;;;;;;2.89;80.79;101418.53;5023291;28;20025;-86
2021/03/16 06:44:27;;;;;;;2.55;2.00;;;;;;;2.73;80.18;101422.16;5022819;28;20036;-85
2021/03/16 06:47:02;;;;;;;3.75;2.28;;;;;;;2.92;79.95;101426.94;5019748;28;20044;-87
2021/03/16 06:49:32;;;;;;;3.20;2.00;;;;;;;3.00;79.72;101426.00;5024605;28;20021;-85
2021/03/16 06:51:58;;;;;;;3.45;2.00;;;;;;;3.00;79.57;101426.84;5024716;28;20506;-84
2021/03/16 06:54:25;;;;;;;3.35;2.00;;;;;;;3.06;79.16;101430.59;5019426;28;20025;-84
2021/03/16 06:57:00;;;;;;;3.45;1.90;;;;;;;3.11;78.85;101428.22;5036247;28;21704;-85
2021/03/16 06:59:26;;;;;;;;;;;;;;;3.18;78.05;101433.59;5018461;28;20510;-84
2021/03/16 07:01:52;;;;;;;3.80;1.88;;;;;;;3.26;77.95;101439.63;5017750;28;20414;-84
2021/03/16 07:04:45;;;;;;;2.28;1.70;;;;;;;3.32;77.94;101449.50;5016419;28;20044;-84
2021/03/16 07:07:12;;;;;;;4.50;2.72;;;;;;;3.29;77.90;101444.56;5034344;28;20029;-85
2021/03/16 07:09:38;;;;;;;3.38;2.20;;;;;;;3.40;77.81;101453.84;5032951;28;20032;-84
2021/03/16 07:12:04;;;;;;;3.58;2.05;;;;;;;3.42;77.59;101453.69;5013862;28;20501;-85
2021/03/16 07:14:31;;;;;;;2.97;2.38;;;;;;;3.48;77.57;101453.78;5017842;28;20130;-84
2021/03/16 07:17:01;;;;;;;3.63;2.20;;;;;;;3.52;76.81;101459.53;5021353;28;20035;-86
2021/03/16 07:19:29;;;;;;;3.13;2.83;;;;;;;3.55;76.47;101456.50;5020789;28;20032;-84
2021/03/16 07:21:56;;;;;;;3.75;2.53;;;;;;;3.51;77.66;101465.84;5021230;28;20032;-85
2021/03/16 07:24:32;;;;;;;2.85;2.22;;;;;;;3.81;77.20;101459.50;5019644;28;20490;-85
2021/03/16 07:26:59;;;;;;;5.60;2.95;;;;;;;3.93;76.93;101471.22;5030461;28;20063;-85
2021/03/16 07:29:26;;;;;;;3.92;2.42;;;;;;;4.03;75.86;101467.47;5034717;28;20031;-85
2021/03/16 07:31:52;;;;;;;3.80;2.65;;;;;;;3.90;75.43;101471.63;5019424;28;20542;-85
2021/03/16 07:34:19;;;;;;;8.57;3.60;;;;;;;4.12;75.87;101474.28;5032503;28;20028;-85
2021/03/16 07:36:46;;;;;;;7.25;3.92;;;;;;;4.16;75.14;101487.00;5014651;28;20039;-85
2021/03/16 07:39:18;;;;;;;6.13;3.35;;;;;;;4.03;74.84;101486.03;5013414;28;20036;-85
2021/03/16 07:41:44;;;;;;;2.78;2.17;;;;;;;4.16;75.47;101489.66;5022487;28;20090;-85
2021/03/16 07:44:13;;;;;;;3.50;2.10;;;;;;;4.33;75.11;101498.22;5039728;28;20029;-86
2021/03/16 07:46:47;;;;;;;3.30;2.50;;;;;;;4.22;74.63;101496.03;5020258;28;20490;-85
2021/03/16 07:49:16;;;;;;;4.88;2.70;;;;;;;3.98;75.36;101491.09;5020684;28;20044;-84
2021/03/16 07:51:45;;;;;;;3.15;2.30;;;;;;;3.97;75.78;101492.09;5032933;28;20037;-85
2021/03/16 07:54:12;;;;;;;3.58;2.00;;;;;;;4.10;75.82;101502.84;5020401;28;20190;-85
2021/03/16 07:56:40;;;;;;;3.60;2.13;;;;;;;4.19;75.65;101505.19;5018967;28;20060;-85
2021/03/16 07:59:07;;;;;;;2.75;2.40;;;;;;;4.25;75.30;101507.09;5023619;28;20372;-84
2021/03/16 08:01:32;;;;;;;3.55;2.10;;;;;;;3.97;76.18;101508.81;5022618;28;20108;-85
2021/03/16 08:04:12;;;;;;;4.28;2.42;;;;;;;3.74;75.80;101513.41;5020484;28;20660;-84
2021/03/16 08:06:38;;;;;;;3.13;2.22;;;;;;;4.09;75.78;101515.28;5021401;28;20085;-86
2021/03/16 08:09:05;;;;;;;5.65;2.50;;;;;;;4.03;75.09;101521.34;5025098;28;20101;-85
2021/03/16 08:11:39;;;;;;;3.15;2.60;;;;;;;4.18;75.28;101527.44;5024671;28;20039;-86
2021/03/16 08:14:05;;;;;;;4.07;2.58;;;;;;;4.10;75.07;101530.19;5039277;28;20383;-85
2021/03/16 08:16:42;;;;;;;4.35;2.55;;;;;;;4.31;74.89;101537.38;5022136;28;20035;-86
2021/03/16 08:19:14;;;;;;;4.55;2.50;;;;;;;4.26;75.77;101534.44;5018852;28;20025;-84
2021/03/16 08:21:42;;;;;;;4.55;2.50;;;;;;;4.16;75.73;101533.94;5023289;28;20203;-86
2021/03/16 08:24:09;;;;;;;3.22;2.40;;;;;;;4.17;76.06;101546.19;5021379;28;20032;-85
2021/03/16 08:26:42;;;;;;;4.15;2.70;;;;;;;4.07;75.87;101541.16;5036931;28;20472;-86
2021/03/16 08:29:08;;;;;;;3.53;2.70;;;;;;;4.18;74.64;101540.69;5020833;28;20064;-85
2021/03/16 08:31:35;;;;;;;4.00;2.55;;;;;;;4.30;74.55;101535.69;5016855;28;20029;-85
2021/03/16 08:34:02;;;;;;;3.58;2.50;;;;;;;4.39;74.37;101541.72;5038057;28;21526;-85
2021/03/16 08:36:31;;;;;;;3.00;2.40;;;;;;;4.13;75.37;101552.84;5020883;28;20057;-84
2021/03/16 08:38:56;;;;;;;6.07;3.33;;;;;;;4.17;75.66;101559.44;5021878;28;20036;-85
2021/03/16 08:41:23;;;;;;;2.95;2.30;;;;;;;4.21;75.64;101558.88;5023005;28;20086;-85
2021/03/16 08:43:51;;;;;;;3.60;2.65;;;;;;;4.34;74.47;101558.22;5020675;28;21052;-85
2021/03/16 08:46:46;;;;;;;5.40;2.28;;;;;;;4.24;74.17;101563.81;5035810;28;20174;-85
2021/03/16 08:49:16;;;;;;;2.50;2.05;;;;;;;4.36;73.62;101558.03;5012732;28;20132;-83
2021/03/16 08:51:42;;;;;;;4.05;2.33;;;;;;;4.33;73.43;101566.38;5034611;28;20099;-85
2021/03/16 08:54:08;;;;;;;3.92;2.00;;;;;;;4.26;72.25;101568.94;5017507;28;20506;-85
2021/03/16 08:56:33;;;;;;;2.88;2.25;;;;;;;4.22;72.62;101576.44;5040973;28;20033;-85
2021/03/16 08:59:06;;;;;;;2.47;1.80;;;;;;;4.10;72.70;101579.75;5017358;28;20556;-85
2021/03/16 09:01:35;;;;;;;4.47;2.20;;;;;;;3.96;72.54;101576.13;5021891;28;20025;-85
2021/03/16 09:04:11;;;;;;;4.32;2.08;;;;;;;3.99;73.00;101586.34;5023083;28;20043;-85
2021/03/16 09:06:38;;;;;;;2.10;1.65;;;;;;;4.09;72.91;101589.53;5034758;28;20086;-85
2021/03/16 09:09:04;;;;;;;2.55;1.75;;;;;;;4.10;73.40;101599.13;5021774;28;20032;-85
2021/03/16 09:11:34;;;;;;;2.78;1.50;;;;;;;4.06;73.47;101592.56;5037411;28;20091;-86
2021/03/16 09:14:08;;;;;;;2.17;1.45;;;;;;;4.03;72.70;101592.09;5012663;28;21012;-85
2021/03/16 09:16:37;;;;;;;1.33;1.23;;;;;;;4.25;72.50;101597.28;5015490;28;20583;-85
2021/03/16 09:19:03;;;;;;;1.50;1.40;;;;;;;4.35;72.04;101604.97;5020190;28;20071;-85
2021/03/16 09:21:28;;;;;;;1.83;1.52;;;;;;;4.56;71.69;101606.84;5020059;28;20814;-85
2021/03/16 09:24:01;;;;;;;1.92;1.45;;;;;;;4.75;71.08;101610.72;5033346;28;20029;-85
2021/03/16 09:26:28;;;;;;;2.30;1.67;;;;;;;4.71;70.92;101612.09;5021988;28;20039;-84
2021/03/16 09:28:54;;;;;;;2.33;1.40;;;;;;;4.64;70.90;101621.81;5021738;28;20033;-85
2021/03/16 09:31:25;;;;;;;1.67;1.35;;;;;;;4.42;70.97;101619.13;5018002;28;20506;-85
2021/03/16 09:33:51;;;;;;;1.73;1.25;;;;;;;4.34;71.04;101616.59;5017837;28;20084;-85
2021/03/16 09:36:26;;;;;;;1.90;1.58;;;;;;;4.28;71.05;101625.28;5022425;28;20046;-85
2021/03/16 09:38:55;;;;;;;3.03;2.17;;;;;;;4.05;71.72;101633.34;5020462;28;20032;-85
2021/03/16 09:41:20;;;;;;;7.65;3.72;;;;;;;4.00;72.79;101640.22;5022567;28;20029;-84
2021/03/16 09:43:46;;;;;;;3.80;2.80;;;;;;;4.09;72.36;101637.25;5020334;28;20068;-85
2021/03/16 09:46:14;;;;;;;5.72;2.40;;;;;;;4.08;72.37;101648.06;5034313;28;20075;-84
2021/03/16 09:48:44;;;;;;;2.75;2.28;;;;;;;4.05;72.42;101645.78;5021655;28;20036;-84
2021/03/16 09:51:13;;;;;;;6.43;2.40;;;;;;;4.01;72.41;101640.03;5018008;28;20391;-85
2021/03/16 09:53:47;;;;;;;4.80;2.38;;;;;;;4.06;72.78;101647.44;5035482;28;20176;-85
2021/03/16 09:56:14;;;;;;;4.47;2.25;;;;;;;4.15;72.59;101654.28;5035351;28;20498;-85
2021/03/16 09:58:46;;;;;;;4.07;2.25;;;;;;;4.04;72.36;101650.25;5019003;28;20052;-85
2021/03/16 10:01:12;;;;;;;4.32;2.33;;;;;;;3.74;72.96;101657.34;5020560;28;20148;-85
2021/03/16 10:03:39;;;;;;;3.85;2.45;;;;;;;3.83;73.22;101651.00;5019253;28;20116;-84
2021/03/16 10:06:06;;;;;;;2.40;2.20;;;;;;;3.96;73.16;101654.84;5022852;28;20029;-85
2021/03/16 10:08:32;;;;;;;3.40;2.50;;;;;;;4.03;72.83;101661.88;5022823;28;20033;-86
2021/03/16 10:10:58;;;;;;;6.00;2.80;;;;;;;4.16;72.84;101653.28;5035493;28;20107;-85
2021/03/16 10:13:32;;;;;;;2.30;2.08;;;;;;;4.39;72.05;101655.81;5020405;28;20553;-86
2021/03/16 10:16:09;;;;;;;2.55;2.35;;;;;;;4.58;71.42;101665.03;5033030;28;20111;-86
2021/03/16 10:18:42;;;;;;;2.78;2.10;;;;;;;4.87;70.50;101657.00;5022000;28;20108;-85
2021/03/16 10:21:08;;;;;;;4.47;1.83;;;;;;;4.96;69.19;101657.69;5021083;28;20021;-86
2021/03/16 10:23:34;;;;;;;4.40;1.83;;;;;;;5.07;69.09;101658.03;5020957;28;20025;-85
2021/03/16 10:26:04;;;;;;;2.38;1.83;;;;;;;4.93;68.56;101658.06;5022821;28;20025;-85
2021/03/16 10:28:38;;;;;;;4.28;1.70;;;;;;;5.34;68.66;101663.56;5022933;28;20057;-85
2021/03/16 10:31:19;;;;;;;2.58;1.70;;;;;;;5.36;68.72;101665.03;5034914;28;20164;-85
2021/03/16 10:33:51;;;;;;;2.47;1.60;;;;;;;5.64;67.12;101666.91;5018943;28;20087;-85
2021/03/16 10:36:17;;;;;;;2.53;1.55;;;;;;;5.86;66.81;101665.00;5024061;28;20747;-86
2021/03/16 10:38:43;;;;;;;2.15;1.63;;;;;;;5.98;65.99;101668.81;5022139;28;20028;-86
2021/03/16 10:41:11;;;;;;;2.78;1.40;;;;;;;5.83;66.32;101678.69;5020239;28;20039;-85
2021/03/16 10:43:37;;;;;;;1.52;1.42;;;;;;;5.69;66.43;101686.56;5035028;28;20687;-85
2021/03/16 10:46:02;;;;;;;2.20;1.60;;;;;;;5.60;66.48;101681.59;5024069;28;20047;-85
2021/03/16 10:48:28;;;;;;;3.05;2.38;;;;;;;5.59;66.56;101677.28;5034823;28;20021;-86
2021/03/16 10:50:54;;;;;;;2.15;1.48;;;;;;;4.92;67.80;101685.66;5014458;28;20032;-85
2021/03/16 10:53:19;;;;;;;4.43;1.80;;;;;;;5.37;67.50;101681.78;5015573;28;20033;-86
2021/03/16 10:55:45;;;;;;;3.00;2.20;;;;;;;5.14;68.84;101687.31;5015001;28;20033;-86
2021/03/16 10:58:11;;;;;;;3.28;1.88;;;;;;;5.26;68.25;101677.81;5021064;28;20032;-86
2021/03/16 11:00:37;;;;;;;2.35;1.67;;;;;;;5.41;67.51;101683.91;5035308;28;20120;-86
2021/03/16 11:03:04;;;;;;;2.15;1.40;;;;;;;5.61;66.94;101688.56;5034703;28;20040;-84
2021/03/16 11:05:30;;;;;;;2.35;1.30;;;;;;;5.69;66.17;101685.75;5018687;28;20053;-85
2021/03/16 11:07:56;;;;;;;2.15;1.27;;;;;;;5.97;65.30;101683.13;5021426;28;20033;-86
2021/03/16 11:10:22;;;;;;;1.90;1.15;;;;;;;5.79;64.72;101682.75;5014690;28;20033;-86
2021/03/16 11:12:47;;;;;;;1.77;1.50;;;;;;;5.45;65.85;101685.16;5020570;28;20032;-86
2021/03/16 11:15:13;;;;;;;2.67;1.42;;;;;;;5.14;67.22;101692.63;5019310;28;20029;-86
2021/03/16 11:17:38;;;;;;;1.80;1.30;;;;;;;5.08;66.44;101690.72;5030628;28;20033;-86
2021/03/16 11:20:05;;;;;;;1.88;1.30;;;;;;;4.80;67.67;101698.56;5019182;28;20025;-86
2021/03/16 11:22:31;;;;;;;1.95;1.20;;;;;;;4.80;68.36;101703.88;5018507;28;20021;-86
2021/03/16 11:24:57;;;;;;;1.45;1.10;;;;;;;4.88;68.96;101705.63;5019741;28;20037;-85
2021/03/16 11:27:22;;;;;;;2.30;1.27;;;;;;;4.50;70.21;101701.31;5018827;28;21110;-86
2021/03/16 11:29:48;;;;;;;1.73;1.00;;;;;;;4.64;69.67;101710.22;5016710;28;21090;-83
2021/03/16 11:32:15;;;;;;;1.10;1.10;;;;;;;4.67;69.23;101709.03;5033103;28;20029;-86
2021/03/16 11:34:41;;;;;;;0.90;0.90;;;;;;;4.73;69.61;101710.97;5020235;28;21140;-86
2021/03/16 11:37:07;;;;;;;1.77;1.15;;;;;;;4.70;69.41;101717.47;5034849;28;20033;-86
2021/03/16 11:39:33;;;;;;;1.67;1.17;;;;;;;4.72;69.50;101720.75;5029050;28;20399;-85